createdAt,value
2019-01-16T00:00:29.213Z,26.40
2019-01-16T00:03:14.364Z,25.63
2019-01-16T00:06:00.172Z,23.10
2019-01-16T00:08:45.965Z,21.83
2019-01-16T00:11:31.920Z,23.30
2019-01-16T00:14:17.648Z,18.33
2019-01-16T00:17:10.341Z,17.60
2019-01-16T00:20:03.261Z,18.03
2019-01-16T00:22:48.790Z,19.03
2019-01-16T00:25:48.106Z,20.60
2019-01-16T00:28:37.774Z,19.73
2019-01-16T00:31:21.974Z,19.87
2019-01-16T00:34:09.121Z,20.83
2019-01-16T00:37:05.316Z,20.33
2019-01-16T00:39:50.874Z,19.33
2019-01-16T00:42:44.633Z,19.53
2019-01-16T00:45:22.608Z,19.60
2019-01-16T00:48:15.629Z,20.37
2019-01-16T00:50:53.537Z,20.67
2019-01-16T00:53:46.805Z,21.50
2019-01-16T00:56:32.513Z,20.57
2019-01-16T00:59:20.965Z,20.03
2019-01-16T01:02:06.547Z,18.87
2019-01-16T01:04:53.967Z,21.80
2019-01-16T01:07:38.582Z,19.70
2019-01-16T01:10:28.677Z,19.23
2019-01-16T01:13:24.435Z,18.33
2019-01-16T01:16:08.984Z,16.53
2019-01-16T01:18:56.113Z,15.90
2019-01-16T01:21:55.194Z,14.43
2019-01-16T01:24:40.977Z,16.70
2019-01-16T01:27:46.277Z,15.10
2019-01-16T01:30:30.973Z,15.87
2019-01-16T01:33:27.396Z,15.97
2019-01-16T01:36:12.865Z,13.37
2019-01-16T01:38:58.729Z,13.07
2019-01-16T01:41:48.753Z,10.63
2019-01-16T01:44:41.588Z,8.87
2019-01-16T01:47:27.349Z,9.53
2019-01-16T01:50:03.166Z,9.77
2019-01-16T01:52:56.052Z,9.63
2019-01-16T01:55:51.878Z,9.23
2019-01-16T01:58:44.713Z,9.43
2019-01-16T02:01:37.507Z,9.00
2019-01-16T02:04:27.285Z,9.63
2019-01-16T02:07:20.299Z,7.90
2019-01-16T02:10:16.078Z,8.20
2019-01-16T02:13:04.619Z,7.20
2019-01-16T02:16:10.254Z,7.30
2019-01-16T02:18:59.738Z,6.80
2019-01-16T02:22:01.791Z,7.70
2019-01-16T02:24:57.794Z,8.27
2019-01-16T02:27:37.129Z,7.57
2019-01-16T02:30:25.526Z,8.57
2019-01-16T02:33:12.660Z,8.20
2019-01-16T02:36:06.421Z,8.93
2019-01-16T02:38:49.929Z,9.27
2019-01-16T02:41:42.946Z,8.53
2019-01-16T02:44:35.725Z,7.67
2019-01-16T02:47:14.534Z,8.40
2019-01-16T02:49:52.650Z,9.70
2019-01-16T02:52:42.746Z,10.47
2019-01-16T02:55:38.796Z,48.50
2019-01-16T02:58:33.786Z,40.37
2019-01-16T03:01:21.000Z,9.43
2019-01-16T03:04:06.226Z,6.57
2019-01-16T03:06:52.785Z,8.10
2019-01-16T03:09:36.411Z,6.73
2019-01-16T03:12:23.536Z,7.27
2019-01-16T03:15:05.114Z,10.37
2019-01-16T03:18:07.516Z,7.67
2019-01-16T03:20:57.559Z,9.23
2019-01-16T03:23:53.772Z,6.37
2019-01-16T03:26:36.233Z,5.97
2019-01-16T03:29:12.050Z,5.07
2019-01-16T03:31:48.695Z,5.57
2019-01-16T03:34:40.766Z,6.47
2019-01-16T03:37:21.146Z,7.33
2019-01-16T03:40:06.903Z,6.87
2019-01-16T03:42:42.543Z,6.43
2019-01-16T03:45:32.513Z,8.27
2019-01-16T03:48:34.642Z,12.83
2019-01-16T03:51:22.426Z,9.40
2019-01-16T03:54:06.490Z,9.83
2019-01-16T03:56:59.293Z,9.80
2019-01-16T03:59:46.538Z,6.73
2019-01-16T04:02:32.246Z,6.30
2019-01-16T04:05:19.487Z,5.67
2019-01-16T04:08:05.182Z,5.10
2019-01-16T04:11:07.350Z,5.33
2019-01-16T04:13:57.506Z,5.93
2019-01-16T04:16:47.591Z,5.57
2019-01-16T04:19:37.626Z,5.67
2019-01-16T04:22:30.706Z,6.80
2019-01-16T04:25:23.724Z,6.03
2019-01-16T04:28:10.954Z,5.83
2019-01-16T04:31:13.370Z,5.87
2019-01-16T04:34:15.605Z,5.60
2019-01-16T04:37:05.626Z,6.10
2019-01-16T04:39:52.867Z,7.13
2019-01-16T04:42:38.006Z,10.93
2019-01-16T04:45:27.900Z,7.50
2019-01-16T04:48:23.937Z,6.90
2019-01-16T04:51:23.003Z,6.70
2019-01-16T04:54:08.606Z,7.17
2019-01-16T04:57:08.071Z,7.00
2019-01-16T04:59:49.949Z,6.27
2019-01-16T05:02:35.830Z,5.67
2019-01-16T05:05:22.569Z,6.00
2019-01-16T05:08:08.331Z,5.90
2019-01-16T05:11:01.777Z,6.03
2019-01-16T05:13:51.570Z,5.50
2019-01-16T05:16:38.802Z,6.43
2019-01-16T05:19:26.015Z,6.83
2019-01-16T05:22:11.718Z,6.47
2019-01-16T05:24:50.511Z,5.77
2019-01-16T05:27:49.902Z,6.40
2019-01-16T05:30:35.531Z,6.97
2019-01-16T05:33:31.642Z,7.30
2019-01-16T05:36:18.854Z,7.10
2019-01-16T05:39:01.145Z,8.30
2019-01-16T05:41:51.266Z,11.30
2019-01-16T05:44:50.234Z,16.70
2019-01-16T05:47:37.437Z,9.50
2019-01-16T05:50:28.981Z,10.80
2019-01-16T05:53:18.978Z,10.23
2019-01-16T05:56:24.538Z,10.67
2019-01-16T05:59:23.625Z,9.80
2019-01-16T06:02:09.660Z,8.67
2019-01-16T06:04:55.273Z,8.83
2019-01-16T06:07:42.518Z,7.43
2019-01-16T06:10:28.962Z,7.07
2019-01-16T06:13:14.946Z,8.77
2019-01-16T06:16:00.466Z,10.30
2019-01-16T06:18:56.550Z,8.70
2019-01-16T06:21:42.113Z,10.90
2019-01-16T06:24:29.366Z,10.27
2019-01-16T06:27:19.806Z,12.37
2019-01-16T06:30:09.910Z,11.40
2019-01-16T06:33:12.075Z,11.57
2019-01-16T06:35:54.993Z,10.13
2019-01-16T06:38:57.426Z,11.13
2019-01-16T06:41:44.626Z,12.47
2019-01-16T06:44:34.359Z,11.63
2019-01-16T06:47:10.178Z,14.93
2019-01-16T06:49:47.313Z,16.90
2019-01-16T06:52:29.466Z,19.53
2019-01-16T06:55:07.069Z,13.70
2019-01-16T06:57:52.520Z,12.97
2019-01-16T07:00:31.837Z,12.23
2019-01-16T07:03:33.717Z,11.03
2019-01-16T07:06:19.703Z,10.63
2019-01-16T07:09:15.885Z,12.27
2019-01-16T07:12:02.077Z,16.07
2019-01-16T07:14:49.285Z,56.63
2019-01-16T07:17:50.017Z,134.57
2019-01-16T07:20:35.568Z,160.07
2019-01-16T07:23:13.610Z,69.60
2019-01-16T07:26:03.785Z,17.87
2019-01-16T07:28:53.746Z,12.90
2019-01-16T07:31:28.921Z,12.50
2019-01-16T07:34:14.474Z,12.47
2019-01-16T07:37:05.095Z,13.30
2019-01-16T07:39:42.681Z,13.80
2019-01-16T07:42:32.638Z,15.33
2019-01-16T07:45:22.305Z,15.30
2019-01-16T07:48:01.545Z,15.23
2019-01-16T07:50:43.178Z,18.07
2019-01-16T07:53:30.137Z,21.37
2019-01-16T07:56:17.425Z,19.43
2019-01-16T07:58:55.457Z,13.83
2019-01-16T08:01:38.102Z,15.27
2019-01-16T08:04:28.292Z,12.20
2019-01-16T08:07:15.457Z,14.10
2019-01-16T08:10:01.209Z,13.30
2019-01-16T08:12:47.021Z,10.77
2019-01-16T08:15:37.013Z,12.40
2019-01-16T08:18:26.996Z,9.80
2019-01-16T08:21:12.245Z,9.23
2019-01-16T08:23:59.377Z,9.87
2019-01-16T08:26:45.494Z,10.60
2019-01-16T08:29:33.005Z,11.77
2019-01-16T08:32:11.794Z,11.80
2019-01-16T08:35:01.261Z,10.33
2019-01-16T08:37:50.997Z,10.33
2019-01-16T08:40:44.485Z,9.47
2019-01-16T08:43:21.846Z,9.17
2019-01-16T08:46:14.173Z,7.53
2019-01-16T08:49:05.855Z,6.93
2019-01-16T08:52:08.141Z,6.63
2019-01-16T08:55:07.549Z,6.43
2019-01-16T08:57:54.845Z,7.07
2019-01-16T09:00:44.955Z,7.47
2019-01-16T09:03:30.817Z,7.10
2019-01-16T09:06:33.197Z,7.30
2019-01-16T09:09:32.350Z,9.27
2019-01-16T09:12:28.321Z,8.40
2019-01-16T09:15:24.674Z,9.43
2019-01-16T09:17:59.851Z,8.13
2019-01-16T09:20:49.637Z,7.10
2019-01-16T09:23:38.453Z,8.37
2019-01-16T09:26:22.227Z,8.37
2019-01-16T09:29:24.278Z,7.03
2019-01-16T09:32:17.413Z,7.20
2019-01-16T09:35:04.509Z,7.63
2019-01-16T09:37:41.501Z,5.87
2019-01-16T09:40:22.270Z,6.47
2019-01-16T09:43:18.277Z,5.30
2019-01-16T09:46:14.024Z,5.20
2019-01-16T09:49:06.765Z,5.10
2019-01-16T09:52:02.740Z,5.00
2019-01-16T09:54:55.786Z,5.93
2019-01-16T09:57:42.184Z,6.43
2019-01-16T10:00:31.453Z,5.47
2019-01-16T10:03:17.178Z,4.57
2019-01-16T10:06:03.025Z,5.80
2019-01-16T10:09:02.274Z,4.73
2019-01-16T10:11:55.321Z,4.83
2019-01-16T10:14:45.085Z,3.73
2019-01-16T10:17:24.859Z,5.03
2019-01-16T10:20:14.781Z,5.43
2019-01-16T10:23:04.457Z,4.70
2019-01-16T10:25:54.512Z,8.03
2019-01-16T10:28:53.496Z,3.37
2019-01-16T10:31:55.560Z,4.50
2019-01-16T10:34:36.065Z,5.77
2019-01-16T10:37:11.780Z,5.57
2019-01-16T10:39:53.833Z,3.97
2019-01-16T10:42:40.973Z,5.00
2019-01-16T10:45:33.703Z,3.90
2019-01-16T10:48:21.102Z,5.07
2019-01-16T10:51:03.032Z,10.20
2019-01-16T10:53:54.373Z,10.13
2019-01-16T10:56:47.110Z,12.73
2019-01-16T10:59:30.316Z,5.03
2019-01-16T11:02:06.613Z,6.47
2019-01-16T11:04:52.452Z,6.90
2019-01-16T11:07:48.428Z,4.77
2019-01-16T11:10:25.477Z,4.17
2019-01-16T11:13:24.599Z,5.03
2019-01-16T11:16:20.265Z,6.17
2019-01-16T11:19:19.135Z,5.17
2019-01-16T11:22:17.953Z,4.73
2019-01-16T11:25:05.109Z,7.60
2019-01-16T11:27:50.999Z,4.30
2019-01-16T11:30:56.545Z,5.10
2019-01-16T11:33:42.112Z,4.20
2019-01-16T11:36:21.330Z,5.20
2019-01-16T11:39:04.765Z,3.77
2019-01-16T11:41:51.927Z,8.13
2019-01-16T11:44:37.539Z,4.10
2019-01-16T11:47:39.803Z,8.00
2019-01-16T11:50:25.297Z,11.67
2019-01-16T11:53:30.619Z,10.60
2019-01-16T11:56:16.273Z,3.90
2019-01-16T11:59:13.987Z,4.40
2019-01-16T12:02:01.131Z,4.73
2019-01-16T12:05:03.241Z,4.90
2019-01-16T12:07:51.345Z,4.33
2019-01-16T12:10:36.800Z,3.60
2019-01-16T12:13:13.965Z,4.30
2019-01-16T12:16:01.115Z,3.60
2019-01-16T12:19:06.521Z,4.07
2019-01-16T12:22:08.973Z,4.60
2019-01-16T12:24:51.337Z,4.87
2019-01-16T12:27:38.476Z,7.57
2019-01-16T12:30:20.423Z,5.20
2019-01-16T12:32:58.934Z,9.05
2019-01-16T12:35:44.626Z,3.90
2019-01-16T12:38:19.858Z,4.60
2019-01-16T12:41:03.949Z,6.53
2019-01-16T12:43:56.887Z,4.93
2019-01-16T12:46:42.370Z,4.50
2019-01-16T12:49:35.489Z,4.50
2019-01-16T12:52:22.662Z,5.13
2019-01-16T12:55:02.297Z,4.63
2019-01-16T12:58:03.162Z,5.23
2019-01-16T13:00:50.361Z,4.80
2019-01-16T13:03:49.893Z,4.63
2019-01-16T13:06:37.117Z,4.30
2019-01-16T13:09:32.613Z,4.27
2019-01-16T13:12:19.753Z,4.53
2019-01-16T13:15:09.789Z,7.03
2019-01-16T13:17:55.556Z,5.62
2019-01-16T13:20:45.529Z,6.10
2019-01-16T13:23:32.669Z,5.20
2019-01-16T13:26:18.560Z,4.80
2019-01-16T13:29:20.881Z,4.67
2019-01-16T13:32:10.833Z,5.37
2019-01-16T13:35:09.828Z,4.53
2019-01-16T13:37:49.808Z,5.50
2019-01-16T13:40:35.793Z,5.23
2019-01-16T13:43:18.365Z,4.73
2019-01-16T13:46:01.982Z,4.60
2019-01-16T13:48:52.888Z,5.53
2019-01-16T13:51:32.138Z,5.00
2019-01-16T13:54:34.587Z,4.70
2019-01-16T13:57:16.977Z,4.30
2019-01-16T14:00:10.941Z,5.92
2019-01-16T14:03:00.949Z,4.77
2019-01-16T14:05:36.279Z,5.27
2019-01-16T14:08:12.841Z,4.70
2019-01-16T14:11:02.524Z,5.10
2019-01-16T14:13:49.652Z,4.03
2019-01-16T14:16:51.681Z,4.83
2019-01-16T14:19:44.865Z,4.43
2019-01-16T14:22:50.054Z,5.07
2019-01-16T14:25:43.227Z,5.23
2019-01-16T14:28:26.229Z,4.97
2019-01-16T14:31:28.333Z,4.53
2019-01-16T14:34:18.249Z,4.33
2019-01-16T14:37:03.878Z,5.07
2019-01-16T14:39:49.644Z,4.53
2019-01-16T14:42:35.570Z,4.77
2019-01-16T14:45:23.075Z,5.20
2019-01-16T14:48:02.686Z,6.90
2019-01-16T14:50:41.530Z,6.00
2019-01-16T14:53:37.817Z,6.13
2019-01-16T14:56:24.981Z,5.30
2019-01-16T14:59:10.993Z,5.70
2019-01-16T15:02:03.840Z,5.17
2019-01-16T15:04:49.362Z,5.30
2019-01-16T15:07:36.533Z,6.43
2019-01-16T15:10:24.220Z,6.50
2019-01-16T15:13:09.131Z,5.17
2019-01-16T15:15:53.325Z,7.23
2019-01-16T15:18:43.037Z,6.97
2019-01-16T15:21:30.187Z,5.90
2019-01-16T15:24:10.895Z,6.40
2019-01-16T15:27:03.593Z,7.63
2019-01-16T15:29:53.335Z,7.73
2019-01-16T15:32:39.066Z,7.37
2019-01-16T15:35:25.536Z,6.67
2019-01-16T15:38:27.757Z,7.10
2019-01-16T15:41:20.986Z,6.30
2019-01-16T15:44:26.317Z,6.90
2019-01-16T15:47:22.132Z,8.47
2019-01-16T15:50:06.549Z,7.00
2019-01-16T15:52:59.431Z,8.03
2019-01-16T15:55:46.574Z,6.47
2019-01-16T15:58:25.865Z,7.10
2019-01-16T16:01:13.034Z,6.93
2019-01-16T16:03:48.809Z,6.90
2019-01-16T16:06:33.257Z,8.43
2019-01-16T16:09:32.030Z,7.83
2019-01-16T16:12:19.253Z,7.80
2019-01-16T16:15:04.790Z,8.00
2019-01-16T16:17:58.000Z,7.47
2019-01-16T16:20:53.994Z,8.87
2019-01-16T16:23:38.606Z,9.00
2019-01-16T16:26:24.069Z,9.20
2019-01-16T16:29:09.803Z,9.10
2019-01-16T16:31:59.998Z,9.57
2019-01-16T16:34:49.825Z,9.93
2019-01-16T16:37:34.646Z,10.50
2019-01-16T16:40:27.430Z,11.70
2019-01-16T16:43:12.305Z,12.13
2019-01-16T16:46:05.533Z,11.20
2019-01-16T16:48:54.318Z,11.83
2019-01-16T16:51:46.022Z,11.37
2019-01-16T16:54:31.564Z,11.83
2019-01-16T16:57:13.863Z,11.77
2019-01-16T17:00:12.797Z,13.30
2019-01-16T17:02:58.347Z,12.67
2019-01-16T17:05:48.358Z,12.93
2019-01-16T17:08:33.911Z,14.47
2019-01-16T17:11:11.617Z,13.37
2019-01-16T17:14:02.837Z,14.93
2019-01-16T17:16:52.706Z,15.90
2019-01-16T17:19:43.772Z,15.87
2019-01-16T17:22:33.921Z,18.60
2019-01-16T17:25:21.050Z,16.73
2019-01-16T17:28:20.273Z,18.20
2019-01-16T17:31:19.113Z,15.97
2019-01-16T17:34:24.582Z,17.20
2019-01-16T17:37:11.673Z,20.17
2019-01-16T17:40:03.065Z,20.27
2019-01-16T17:42:59.129Z,23.55
2019-01-16T17:45:55.009Z,22.43
2019-01-16T17:48:44.807Z,19.40
2019-01-16T17:51:50.241Z,21.17
2019-01-16T17:54:40.280Z,22.87
2019-01-16T17:57:30.132Z,28.10
2019-01-16T18:00:28.895Z,34.63
2019-01-16T18:03:26.933Z,27.63
2019-01-16T18:06:14.113Z,34.08
2019-01-16T18:09:06.973Z,28.40
2019-01-16T18:11:52.629Z,24.33
2019-01-16T18:14:48.597Z,25.23
2019-01-16T18:17:33.933Z,25.07
2019-01-16T18:20:26.908Z,70.53
2019-01-16T18:23:31.801Z,66.30
2019-01-16T18:26:24.506Z,42.87
2019-01-16T18:29:15.425Z,66.47
2019-01-16T18:32:08.392Z,41.00
2019-01-16T18:34:58.109Z,52.60
2019-01-16T18:37:35.761Z,76.83
2019-01-16T18:40:14.593Z,69.77
2019-01-16T18:43:10.553Z,54.87
2019-01-16T18:46:06.519Z,57.50
2019-01-16T18:48:53.692Z,54.10
2019-01-16T18:51:39.017Z,49.03
2019-01-16T18:54:29.008Z,48.03
2019-01-16T18:57:19.021Z,48.00
2019-01-16T19:00:04.476Z,50.27
2019-01-16T19:02:50.073Z,64.47
2019-01-16T19:05:36.017Z,55.97
2019-01-16T19:08:25.969Z,54.83
2019-01-16T19:11:13.100Z,101.30
2019-01-16T19:14:02.860Z,127.23
2019-01-16T19:16:52.834Z,71.17
2019-01-16T19:19:32.690Z,62.40
2019-01-16T19:22:19.821Z,50.20
2019-01-16T19:24:56.617Z,42.33
2019-01-16T19:27:41.670Z,45.23
2019-01-16T19:30:22.301Z,41.20
2019-01-16T19:33:18.549Z,44.63
2019-01-16T19:36:04.088Z,45.73
2019-01-16T19:38:49.951Z,46.43
2019-01-16T19:41:37.852Z,43.87
2019-01-16T19:44:24.982Z,43.20
2019-01-16T19:47:05.830Z,40.90
2019-01-16T19:49:52.957Z,40.40
2019-01-16T19:52:34.737Z,39.73
2019-01-16T19:55:20.515Z,40.10
2019-01-16T19:58:19.680Z,39.63
2019-01-16T20:01:06.798Z,42.20
2019-01-16T20:04:03.040Z,43.13
2019-01-16T20:06:55.905Z,44.27
2019-01-16T20:09:42.913Z,56.93
2019-01-16T20:12:28.625Z,45.07
2019-01-16T20:18:01.762Z,48.77
2019-01-16T20:20:54.931Z,64.13
2019-01-16T20:23:38.689Z,60.63
2019-01-16T20:26:43.680Z,63.53
2019-01-16T20:29:39.641Z,67.43
2019-01-16T20:32:26.781Z,75.00
2019-01-16T20:35:10.905Z,72.90
2019-01-16T20:37:54.865Z,71.63
2019-01-16T20:40:47.648Z,63.33
2019-01-16T20:43:49.745Z,57.80
2019-01-16T20:46:35.857Z,52.53
2019-01-16T20:49:23.041Z,41.10
2019-01-16T20:52:18.710Z,38.50
2019-01-16T20:55:00.789Z,42.30
2019-01-16T20:57:42.425Z,44.23
2019-01-16T21:00:30.951Z,44.97
2019-01-16T21:03:27.078Z,45.10
2019-01-16T21:06:19.812Z,45.67
2019-01-16T21:09:05.353Z,51.23
2019-01-16T21:12:01.694Z,50.57
2019-01-16T21:14:42.870Z,51.27
2019-01-16T21:17:31.174Z,49.97
2019-01-16T21:20:12.993Z,42.97
2019-01-16T21:23:05.508Z,42.77
2019-01-16T21:25:55.449Z,39.60
2019-01-16T21:28:42.717Z,41.83
2019-01-16T21:31:29.863Z,46.57
2019-01-16T21:34:17.298Z,51.77
2019-01-16T21:37:04.567Z,44.53
2019-01-16T21:39:57.552Z,38.40
2019-01-16T21:42:54.185Z,52.23
2019-01-16T21:45:56.756Z,49.38
2019-01-16T21:48:47.059Z,37.53
2019-01-16T21:51:44.204Z,37.50
2019-01-16T21:54:31.438Z,40.83
2019-01-16T21:57:27.713Z,30.83
2019-01-16T22:00:20.609Z,28.30
2019-01-16T22:03:17.105Z,38.10
2019-01-16T22:06:10.592Z,30.50
2019-01-16T22:08:56.597Z,25.70
2019-01-16T22:11:59.031Z,23.80
2019-01-16T22:14:38.629Z,24.20
2019-01-16T22:17:36.971Z,25.40
2019-01-16T22:20:23.197Z,24.90
2019-01-16T22:23:18.487Z,24.00
2019-01-16T22:26:11.680Z,25.73
2019-01-16T22:28:57.784Z,23.33
2019-01-16T22:31:53.961Z,24.63
2019-01-16T22:34:40.925Z,27.23
2019-01-16T22:37:17.768Z,28.90
2019-01-16T22:40:03.269Z,30.20
2019-01-16T22:42:50.432Z,30.07
2019-01-16T22:45:52.210Z,28.00
2019-01-16T22:48:42.605Z,22.97
2019-01-16T22:51:38.433Z,23.83
2019-01-16T22:54:40.269Z,24.77
2019-01-16T22:57:27.397Z,24.50
2019-01-16T23:03:10.562Z,24.57
2019-01-16T23:05:56.496Z,28.20
2019-01-16T23:08:31.425Z,25.67
2019-01-16T23:11:16.653Z,30.37
2019-01-16T23:14:02.177Z,25.17
2019-01-16T23:16:43.891Z,26.00
2019-01-16T23:19:23.647Z,29.23
2019-01-16T23:22:09.693Z,27.40
2019-01-16T23:24:56.689Z,31.77
2019-01-16T23:27:43.849Z,25.67
2019-01-16T23:30:32.367Z,24.50
2019-01-16T23:33:20.354Z,25.63
2019-01-16T23:36:07.485Z,24.53
2019-01-16T23:39:00.285Z,22.37
2019-01-16T23:41:38.845Z,24.23
2019-01-16T23:44:26.292Z,22.37
2019-01-16T23:47:10.680Z,19.50
2019-01-16T23:49:57.829Z,18.87
2019-01-16T23:53:02.893Z,19.30
2019-01-16T23:55:52.602Z,21.17
2019-01-16T23:58:45.570Z,19.57
